sensor_id;sensor_type;location;lat;lon;timestamp;P1;durP1;ratioP1;P2;durP2;ratioP2
56728;SDS011;42612;52.232;7.560;2024-03-23T00:51:26;6.25;;;2.58;;
56728;SDS011;42612;52.232;7.560;2024-03-23T00:53:52;8.75;;;3.08;;
56728;SDS011;42612;52.232;7.560;2024-03-23T00:56:18;5.97;;;2.78;;
56728;SDS011;42612;52.232;7.560;2024-03-23T00:58:44;5.55;;;2.72;;
56728;SDS011;42612;52.232;7.560;2024-03-23T01:01:10;13.65;;;3.45;;
56728;SDS011;42612;52.232;7.560;2024-03-23T01:03:35;6.72;;;3.03;;
56728;SDS011;42612;52.232;7.560;2024-03-23T01:06:01;7.05;;;3.05;;
56728;SDS011;42612;52.232;7.560;2024-03-23T01:08:29;7.22;;;3.17;;
56728;SDS011;42612;52.232;7.560;2024-03-23T01:10:58;14.45;;;2.83;;
56728;SDS011;42612;52.232;7.560;2024-03-23T01:13:26;10.70;;;3.47;;
56728;SDS011;42612;52.232;7.560;2024-03-23T01:15:53;5.00;;;2.40;;
56728;SDS011;42612;52.232;7.560;2024-03-23T01:18:21;9.07;;;3.20;;
56728;SDS011;42612;52.232;7.560;2024-03-23T01:20:49;10.05;;;3.22;;
56728;SDS011;42612;52.232;7.560;2024-03-23T01:23:15;8.55;;;3.00;;
56728;SDS011;42612;52.232;7.560;2024-03-23T01:25:41;7.57;;;3.00;;
56728;SDS011;42612;52.232;7.560;2024-03-23T01:28:07;5.80;;;2.55;;
56728;SDS011;42612;52.232;7.560;2024-03-23T01:30:33;9.65;;;3.15;;
56728;SDS011;42612;52.232;7.560;2024-03-23T01:33:00;5.60;;;2.95;;
56728;SDS011;42612;52.232;7.560;2024-03-23T01:35:26;7.65;;;2.58;;
56728;SDS011;42612;52.232;7.560;2024-03-23T01:37:52;6.78;;;2.20;;
56728;SDS011;42612;52.232;7.560;2024-03-23T01:40:17;8.48;;;2.65;;
56728;SDS011;42612;52.232;7.560;2024-03-23T01:42:54;4.63;;;2.42;;
56728;SDS011;42612;52.232;7.560;2024-03-23T01:45:27;5.88;;;2.17;;
56728;SDS011;42612;52.232;7.560;2024-03-23T01:47:52;4.32;;;2.40;;
56728;SDS011;42612;52.232;7.560;2024-03-23T01:50:21;8.57;;;2.50;;
56728;SDS011;42612;52.232;7.560;2024-03-23T01:52:48;4.60;;;2.03;;
56728;SDS011;42612;52.232;7.560;2024-03-23T01:55:15;6.15;;;2.03;;
56728;SDS011;42612;52.232;7.560;2024-03-23T01:57:41;4.22;;;2.13;;
56728;SDS011;42612;52.232;7.560;2024-03-23T02:00:07;5.40;;;2.28;;
56728;SDS011;42612;52.232;7.560;2024-03-23T02:05:00;3.88;;;1.80;;
56728;SDS011;42612;52.232;7.560;2024-03-23T02:07:26;5.88;;;2.15;;
56728;SDS011;42612;52.232;7.560;2024-03-23T02:09:52;5.03;;;1.98;;
56728;SDS011;42612;52.232;7.560;2024-03-23T02:12:18;4.97;;;2.03;;
56728;SDS011;42612;52.232;7.560;2024-03-23T02:14:44;3.92;;;1.80;;
56728;SDS011;42612;52.232;7.560;2024-03-23T02:17:10;7.05;;;2.10;;
56728;SDS011;42612;52.232;7.560;2024-03-23T02:19:36;5.85;;;2.05;;
56728;SDS011;42612;52.232;7.560;2024-03-23T02:22:02;5.57;;;2.00;;
56728;SDS011;42612;52.232;7.560;2024-03-23T02:24:29;5.88;;;1.80;;
56728;SDS011;42612;52.232;7.560;2024-03-23T02:26:54;3.88;;;1.88;;
56728;SDS011;42612;52.232;7.560;2024-03-23T02:29:20;6.28;;;1.60;;
56728;SDS011;42612;52.232;7.560;2024-03-23T02:31:46;4.47;;;1.85;;
56728;SDS011;42612;52.232;7.560;2024-03-23T02:34:12;2.33;;;1.30;;
56728;SDS011;42612;52.232;7.560;2024-03-23T02:36:37;6.90;;;2.15;;
56728;SDS011;42612;52.232;7.560;2024-03-23T02:39:03;6.28;;;2.03;;
56728;SDS011;42612;52.232;7.560;2024-03-23T02:41:30;5.80;;;2.38;;
56728;SDS011;42612;52.232;7.560;2024-03-23T02:43:55;4.28;;;1.90;;
56728;SDS011;42612;52.232;7.560;2024-03-23T02:46:21;6.63;;;1.70;;
56728;SDS011;42612;52.232;7.560;2024-03-23T02:48:48;8.07;;;1.95;;
56728;SDS011;42612;52.232;7.560;2024-03-23T02:51:14;8.40;;;2.15;;
56728;SDS011;42612;52.232;7.560;2024-03-23T02:53:40;4.32;;;2.13;;
56728;SDS011;42612;52.232;7.560;2024-03-23T02:56:06;4.63;;;2.03;;
56728;SDS011;42612;52.232;7.560;2024-03-23T02:58:32;4.57;;;2.03;;
56728;SDS011;42612;52.232;7.560;2024-03-23T03:00:58;11.45;;;2.50;;
56728;SDS011;42612;52.232;7.560;2024-03-23T03:03:24;12.25;;;2.75;;
56728;SDS011;42612;52.232;7.560;2024-03-23T03:05:56;8.90;;;2.40;;
56728;SDS011;42612;52.232;7.560;2024-03-23T03:08:22;7.00;;;2.10;;
56728;SDS011;42612;52.232;7.560;2024-03-23T03:10:47;6.68;;;2.60;;
56728;SDS011;42612;52.232;7.560;2024-03-23T03:13:13;5.15;;;1.92;;
56728;SDS011;42612;52.232;7.560;2024-03-23T03:15:48;9.77;;;3.47;;
56728;SDS011;42612;52.232;7.560;2024-03-23T03:18:14;6.50;;;2.42;;
56728;SDS011;42612;52.232;7.560;2024-03-23T03:20:40;8.77;;;2.53;;
56728;SDS011;42612;52.232;7.560;2024-03-23T03:23:06;11.98;;;3.15;;
56728;SDS011;42612;52.232;7.560;2024-03-23T03:25:32;5.70;;;3.20;;
56728;SDS011;42612;52.232;7.560;2024-03-23T03:27:59;12.57;;;2.83;;
56728;SDS011;42612;52.232;7.560;2024-03-23T03:30:25;8.85;;;3.40;;
56728;SDS011;42612;52.232;7.560;2024-03-23T03:32:53;8.55;;;2.92;;
56728;SDS011;42612;52.232;7.560;2024-03-23T03:35:19;9.90;;;2.75;;
56728;SDS011;42612;52.232;7.560;2024-03-23T03:37:45;14.35;;;3.50;;
56728;SDS011;42612;52.232;7.560;2024-03-23T03:40:12;5.88;;;2.58;;
56728;SDS011;42612;52.232;7.560;2024-03-23T03:42:39;11.55;;;3.33;;
56728;SDS011;42612;52.232;7.560;2024-03-23T03:45:06;8.73;;;3.28;;
56728;SDS011;42612;52.232;7.560;2024-03-23T03:47:32;8.50;;;2.97;;
56728;SDS011;42612;52.232;7.560;2024-03-23T03:49:58;13.93;;;3.75;;
56728;SDS011;42612;52.232;7.560;2024-03-23T03:52:24;7.05;;;2.78;;
56728;SDS011;42612;52.232;7.560;2024-03-23T03:54:50;10.50;;;3.17;;
56728;SDS011;42612;52.232;7.560;2024-03-23T03:57:16;9.73;;;2.85;;
56728;SDS011;42612;52.232;7.560;2024-03-23T03:59:42;10.00;;;3.25;;
56728;SDS011;42612;52.232;7.560;2024-03-23T04:02:07;10.45;;;3.20;;
56728;SDS011;42612;52.232;7.560;2024-03-23T04:04:33;10.75;;;3.50;;
56728;SDS011;42612;52.232;7.560;2024-03-23T04:06:59;10.20;;;3.45;;
56728;SDS011;42612;52.232;7.560;2024-03-23T04:09:26;8.75;;;3.38;;
56728;SDS011;42612;52.232;7.560;2024-03-23T04:11:51;10.10;;;3.60;;
56728;SDS011;42612;52.232;7.560;2024-03-23T04:14:17;16.77;;;3.17;;
56728;SDS011;42612;52.232;7.560;2024-03-23T04:16:43;19.35;;;3.25;;
56728;SDS011;42612;52.232;7.560;2024-03-23T04:19:08;6.25;;;2.85;;
56728;SDS011;42612;52.232;7.560;2024-03-23T04:21:35;11.20;;;3.10;;
56728;SDS011;42612;52.232;7.560;2024-03-23T04:24:03;9.65;;;3.13;;
56728;SDS011;42612;52.232;7.560;2024-03-23T04:26:30;11.68;;;3.15;;
56728;SDS011;42612;52.232;7.560;2024-03-23T04:28:55;13.13;;;3.45;;
56728;SDS011;42612;52.232;7.560;2024-03-23T04:31:21;11.65;;;3.22;;
56728;SDS011;42612;52.232;7.560;2024-03-23T04:33:47;8.93;;;3.13;;
56728;SDS011;42612;52.232;7.560;2024-03-23T04:36:12;12.65;;;4.35;;
56728;SDS011;42612;52.232;7.560;2024-03-23T04:38:38;9.38;;;3.42;;
56728;SDS011;42612;52.232;7.560;2024-03-23T04:41:04;14.57;;;3.85;;
56728;SDS011;42612;52.232;7.560;2024-03-23T04:43:30;14.13;;;4.13;;
56728;SDS011;42612;52.232;7.560;2024-03-23T04:45:56;16.55;;;4.70;;
56728;SDS011;42612;52.232;7.560;2024-03-23T04:48:22;12.48;;;3.60;;
56728;SDS011;42612;52.232;7.560;2024-03-23T04:50:48;12.70;;;3.53;;
56728;SDS011;42612;52.232;7.560;2024-03-23T04:53:15;12.55;;;4.40;;
56728;SDS011;42612;52.232;7.560;2024-03-23T04:55:41;11.27;;;4.00;;
56728;SDS011;42612;52.232;7.560;2024-03-23T04:58:07;14.13;;;4.30;;
56728;SDS011;42612;52.232;7.560;2024-03-23T05:00:33;12.07;;;4.38;;
56728;SDS011;42612;52.232;7.560;2024-03-23T05:02:59;10.43;;;4.95;;
56728;SDS011;42612;52.232;7.560;2024-03-23T05:05:25;12.27;;;4.85;;
56728;SDS011;42612;52.232;7.560;2024-03-23T05:07:51;11.18;;;4.32;;
56728;SDS011;42612;52.232;7.560;2024-03-23T05:10:16;13.98;;;4.60;;
56728;SDS011;42612;52.232;7.560;2024-03-23T05:12:42;20.90;;;4.85;;
56728;SDS011;42612;52.232;7.560;2024-03-23T05:15:10;12.07;;;4.63;;
56728;SDS011;42612;52.232;7.560;2024-03-23T05:17:35;10.73;;;4.32;;
56728;SDS011;42612;52.232;7.560;2024-03-23T05:20:02;10.80;;;4.07;;
56728;SDS011;42612;52.232;7.560;2024-03-23T05:22:29;14.30;;;4.13;;
56728;SDS011;42612;52.232;7.560;2024-03-23T05:24:55;8.38;;;4.03;;
56728;SDS011;42612;52.232;7.560;2024-03-23T05:27:21;8.35;;;4.65;;
56728;SDS011;42612;52.232;7.560;2024-03-23T05:29:48;16.00;;;4.80;;
56728;SDS011;42612;52.232;7.560;2024-03-23T05:32:13;19.30;;;5.93;;
56728;SDS011;42612;52.232;7.560;2024-03-23T05:34:39;11.05;;;4.38;;
56728;SDS011;42612;52.232;7.560;2024-03-23T05:37:05;13.13;;;4.15;;
56728;SDS011;42612;52.232;7.560;2024-03-23T05:39:31;15.00;;;4.72;;
56728;SDS011;42612;52.232;7.560;2024-03-23T05:41:56;17.13;;;4.72;;
56728;SDS011;42612;52.232;7.560;2024-03-23T05:44:22;18.67;;;5.57;;
56728;SDS011;42612;52.232;7.560;2024-03-23T05:46:48;14.10;;;6.00;;
56728;SDS011;42612;52.232;7.560;2024-03-23T05:49:13;12.38;;;5.55;;
56728;SDS011;42612;52.232;7.560;2024-03-23T05:51:40;15.20;;;5.65;;
56728;SDS011;42612;52.232;7.560;2024-03-23T05:54:06;16.65;;;5.60;;
56728;SDS011;42612;52.232;7.560;2024-03-23T05:56:32;16.42;;;5.25;;
56728;SDS011;42612;52.232;7.560;2024-03-23T05:58:57;14.23;;;5.47;;
56728;SDS011;42612;52.232;7.560;2024-03-23T06:01:23;16.58;;;5.35;;
56728;SDS011;42612;52.232;7.560;2024-03-23T06:03:49;16.70;;;5.28;;
56728;SDS011;42612;52.232;7.560;2024-03-23T06:06:15;18.73;;;6.13;;
56728;SDS011;42612;52.232;7.560;2024-03-23T06:08:41;15.65;;;5.47;;
56728;SDS011;42612;52.232;7.560;2024-03-23T06:11:07;12.60;;;5.18;;
56728;SDS011;42612;52.232;7.560;2024-03-23T06:13:32;20.52;;;6.43;;
56728;SDS011;42612;52.232;7.560;2024-03-23T06:16:00;15.00;;;5.97;;
56728;SDS011;42612;52.232;7.560;2024-03-23T06:18:26;15.83;;;6.53;;
56728;SDS011;42612;52.232;7.560;2024-03-23T06:20:53;18.98;;;6.65;;
56728;SDS011;42612;52.232;7.560;2024-03-23T06:23:18;16.08;;;6.53;;
56728;SDS011;42612;52.232;7.560;2024-03-23T06:25:45;14.75;;;6.18;;
56728;SDS011;42612;52.232;7.560;2024-03-23T06:28:12;17.05;;;6.18;;
56728;SDS011;42612;52.232;7.560;2024-03-23T06:30:37;16.35;;;6.20;;
56728;SDS011;42612;52.232;7.560;2024-03-23T06:33:03;16.75;;;6.15;;
56728;SDS011;42612;52.232;7.560;2024-03-23T06:35:30;15.77;;;6.45;;
56728;SDS011;42612;52.232;7.560;2024-03-23T06:37:56;15.07;;;6.30;;
56728;SDS011;42612;52.232;7.560;2024-03-23T06:40:23;13.73;;;6.63;;
56728;SDS011;42612;52.232;7.560;2024-03-23T06:42:49;16.25;;;6.25;;
56728;SDS011;42612;52.232;7.560;2024-03-23T06:45:16;14.57;;;5.03;;
56728;SDS011;42612;52.232;7.560;2024-03-23T06:47:47;11.98;;;5.50;;
56728;SDS011;42612;52.232;7.560;2024-03-23T06:50:14;15.25;;;6.13;;
56728;SDS011;42612;52.232;7.560;2024-03-23T06:52:40;16.92;;;6.57;;
56728;SDS011;42612;52.232;7.560;2024-03-23T06:55:06;15.15;;;5.90;;
56728;SDS011;42612;52.232;7.560;2024-03-23T06:57:32;16.75;;;5.85;;
56728;SDS011;42612;52.232;7.560;2024-03-23T06:59:58;14.77;;;5.95;;
56728;SDS011;42612;52.232;7.560;2024-03-23T07:02:24;15.70;;;6.00;;
56728;SDS011;42612;52.232;7.560;2024-03-23T07:04:49;19.40;;;6.35;;
56728;SDS011;42612;52.232;7.560;2024-03-23T07:07:15;12.90;;;5.40;;
56728;SDS011;42612;52.232;7.560;2024-03-23T07:09:41;14.05;;;5.85;;
56728;SDS011;42612;52.232;7.560;2024-03-23T07:12:07;16.08;;;5.45;;
56728;SDS011;42612;52.232;7.560;2024-03-23T07:14:32;15.07;;;5.85;;
56728;SDS011;42612;52.232;7.560;2024-03-23T07:16:58;20.23;;;8.82;;
56728;SDS011;42612;52.232;7.560;2024-03-23T07:19:24;15.18;;;7.57;;
56728;SDS011;42612;52.232;7.560;2024-03-23T07:21:49;12.63;;;6.15;;
56728;SDS011;42612;52.232;7.560;2024-03-23T07:24:15;11.63;;;5.35;;
56728;SDS011;42612;52.232;7.560;2024-03-23T07:26:41;14.43;;;6.10;;
56728;SDS011;42612;52.232;7.560;2024-03-23T07:29:07;10.68;;;4.75;;
56728;SDS011;42612;52.232;7.560;2024-03-23T07:31:32;13.13;;;5.95;;
56728;SDS011;42612;52.232;7.560;2024-03-23T07:33:58;19.63;;;5.20;;
56728;SDS011;42612;52.232;7.560;2024-03-23T07:36:24;13.40;;;6.85;;
56728;SDS011;42612;52.232;7.560;2024-03-23T07:38:50;16.20;;;5.90;;
56728;SDS011;42612;52.232;7.560;2024-03-23T07:41:17;23.05;;;5.85;;
56728;SDS011;42612;52.232;7.560;2024-03-23T07:43:44;12.43;;;4.63;;
56728;SDS011;42612;52.232;7.560;2024-03-23T07:46:11;13.60;;;5.90;;
56728;SDS011;42612;52.232;7.560;2024-03-23T07:48:38;10.80;;;4.15;;
56728;SDS011;42612;52.232;7.560;2024-03-23T07:51:18;10.05;;;4.53;;
56728;SDS011;42612;52.232;7.560;2024-03-23T07:53:48;11.73;;;4.60;;
56728;SDS011;42612;52.232;7.560;2024-03-23T07:56:14;7.65;;;4.28;;
56728;SDS011;42612;52.232;7.560;2024-03-23T07:58:41;10.63;;;4.10;;
56728;SDS011;42612;52.232;7.560;2024-03-23T08:01:08;12.45;;;4.35;;
56728;SDS011;42612;52.232;7.560;2024-03-23T08:03:42;14.75;;;4.40;;
56728;SDS011;42612;52.232;7.560;2024-03-23T08:06:13;7.18;;;3.30;;
56728;SDS011;42612;52.232;7.560;2024-03-23T08:11:24;12.68;;;3.83;;
56728;SDS011;42612;52.232;7.560;2024-03-23T08:13:54;9.18;;;3.75;;
56728;SDS011;42612;52.232;7.560;2024-03-23T08:16:21;7.60;;;3.55;;
56728;SDS011;42612;52.232;7.560;2024-03-23T08:18:47;11.13;;;3.35;;
56728;SDS011;42612;52.232;7.560;2024-03-23T08:21:15;8.57;;;3.38;;
56728;SDS011;42612;52.232;7.560;2024-03-23T08:23:41;8.25;;;3.25;;
56728;SDS011;42612;52.232;7.560;2024-03-23T08:26:07;7.45;;;3.35;;
56728;SDS011;42612;52.232;7.560;2024-03-23T08:28:39;11.70;;;4.82;;
56728;SDS011;42612;52.232;7.560;2024-03-23T08:31:09;8.88;;;3.13;;
56728;SDS011;42612;52.232;7.560;2024-03-23T08:33:36;12.20;;;3.85;;
56728;SDS011;42612;52.232;7.560;2024-03-23T08:38:34;13.18;;;3.78;;
56728;SDS011;42612;52.232;7.560;2024-03-23T08:43:28;9.25;;;3.65;;
56728;SDS011;42612;52.232;7.560;2024-03-23T08:46:03;5.97;;;3.50;;
56728;SDS011;42612;52.232;7.560;2024-03-23T08:48:47;8.20;;;3.05;;
56728;SDS011;42612;52.232;7.560;2024-03-23T08:51:14;6.63;;;3.38;;
56728;SDS011;42612;52.232;7.560;2024-03-23T08:53:41;10.38;;;2.97;;
56728;SDS011;42612;52.232;7.560;2024-03-23T08:56:08;9.93;;;3.08;;
56728;SDS011;42612;52.232;7.560;2024-03-23T08:58:35;8.30;;;3.47;;
56728;SDS011;42612;52.232;7.560;2024-03-23T09:01:11;8.80;;;2.95;;
56728;SDS011;42612;52.232;7.560;2024-03-23T09:03:38;9.02;;;3.50;;
56728;SDS011;42612;52.232;7.560;2024-03-23T09:06:11;6.28;;;3.33;;
56728;SDS011;42612;52.232;7.560;2024-03-23T09:08:39;10.10;;;3.92;;
56728;SDS011;42612;52.232;7.560;2024-03-23T09:11:12;10.20;;;2.67;;
56728;SDS011;42612;52.232;7.560;2024-03-23T09:13:39;9.13;;;3.50;;
56728;SDS011;42612;52.232;7.560;2024-03-23T09:18:33;6.50;;;2.45;;
56728;SDS011;42612;52.232;7.560;2024-03-23T09:21:01;8.45;;;3.40;;
56728;SDS011;42612;52.232;7.560;2024-03-23T09:25:54;5.25;;;2.25;;
56728;SDS011;42612;52.232;7.560;2024-03-23T09:28:19;8.07;;;2.80;;
56728;SDS011;42612;52.232;7.560;2024-03-23T09:30:45;9.85;;;2.80;;
56728;SDS011;42612;52.232;7.560;2024-03-23T09:33:11;7.63;;;2.30;;
56728;SDS011;42612;52.232;7.560;2024-03-23T09:35:38;7.13;;;2.63;;
56728;SDS011;42612;52.232;7.560;2024-03-23T09:38:05;8.88;;;2.38;;
56728;SDS011;42612;52.232;7.560;2024-03-23T09:40:32;10.95;;;3.13;;
56728;SDS011;42612;52.232;7.560;2024-03-23T09:42:58;7.82;;;2.55;;
56728;SDS011;42612;52.232;7.560;2024-03-23T09:45:28;12.10;;;2.50;;
56728;SDS011;42612;52.232;7.560;2024-03-23T09:47:54;5.95;;;2.00;;
56728;SDS011;42612;52.232;7.560;2024-03-23T09:50:21;5.53;;;2.75;;
56728;SDS011;42612;52.232;7.560;2024-03-23T09:52:47;4.43;;;1.88;;
56728;SDS011;42612;52.232;7.560;2024-03-23T09:55:13;11.35;;;2.50;;
56728;SDS011;42612;52.232;7.560;2024-03-23T09:57:40;8.13;;;2.28;;
56728;SDS011;42612;52.232;7.560;2024-03-23T10:00:07;2.97;;;1.92;;
56728;SDS011;42612;52.232;7.560;2024-03-23T10:02:34;3.30;;;1.60;;
56728;SDS011;42612;52.232;7.560;2024-03-23T10:05:00;3.83;;;1.70;;
56728;SDS011;42612;52.232;7.560;2024-03-23T10:07:27;5.72;;;2.25;;
56728;SDS011;42612;52.232;7.560;2024-03-23T10:09:53;6.85;;;2.33;;
56728;SDS011;42612;52.232;7.560;2024-03-23T10:12:20;4.57;;;2.00;;
56728;SDS011;42612;52.232;7.560;2024-03-23T10:14:47;6.82;;;2.33;;
56728;SDS011;42612;52.232;7.560;2024-03-23T10:17:16;4.68;;;2.33;;
56728;SDS011;42612;52.232;7.560;2024-03-23T10:19:48;4.10;;;1.88;;
56728;SDS011;42612;52.232;7.560;2024-03-23T10:22:23;5.80;;;2.15;;
56728;SDS011;42612;52.232;7.560;2024-03-23T10:24:49;7.53;;;2.38;;
56728;SDS011;42612;52.232;7.560;2024-03-23T10:27:17;5.22;;;2.10;;
56728;SDS011;42612;52.232;7.560;2024-03-23T10:29:48;6.60;;;2.60;;
56728;SDS011;42612;52.232;7.560;2024-03-23T10:32:15;7.30;;;2.40;;
56728;SDS011;42612;52.232;7.560;2024-03-23T10:37:08;9.30;;;2.80;;
56728;SDS011;42612;52.232;7.560;2024-03-23T10:39:36;4.37;;;2.40;;
56728;SDS011;42612;52.232;7.560;2024-03-23T10:42:04;3.42;;;2.17;;
56728;SDS011;42612;52.232;7.560;2024-03-23T10:44:31;3.83;;;2.03;;
56728;SDS011;42612;52.232;7.560;2024-03-23T10:47:00;3.05;;;1.40;;
56728;SDS011;42612;52.232;7.560;2024-03-23T10:49:28;5.47;;;1.58;;
56728;SDS011;42612;52.232;7.560;2024-03-23T10:51:59;3.97;;;1.52;;
56728;SDS011;42612;52.232;7.560;2024-03-23T10:54:27;4.05;;;1.27;;
56728;SDS011;42612;52.232;7.560;2024-03-23T11:00:01;2.35;;;1.50;;
56728;SDS011;42612;52.232;7.560;2024-03-23T11:02:28;2.10;;;1.02;;
56728;SDS011;42612;52.232;7.560;2024-03-23T11:04:54;1.27;;;1.00;;
56728;SDS011;42612;52.232;7.560;2024-03-23T11:09:52;1.52;;;0.90;;
56728;SDS011;42612;52.232;7.560;2024-03-23T11:14:53;3.17;;;1.00;;
56728;SDS011;42612;52.232;7.560;2024-03-23T11:17:29;2.63;;;1.27;;
56728;SDS011;42612;52.232;7.560;2024-03-23T11:20:05;4.93;;;1.23;;
56728;SDS011;42612;52.232;7.560;2024-03-23T11:27:51;1.98;;;1.13;;
56728;SDS011;42612;52.232;7.560;2024-03-23T11:32:53;2.85;;;1.50;;
56728;SDS011;42612;52.232;7.560;2024-03-23T11:35:31;3.38;;;1.20;;
56728;SDS011;42612;52.232;7.560;2024-03-23T11:38:02;2.10;;;1.25;;
56728;SDS011;42612;52.232;7.560;2024-03-23T11:40:42;3.20;;;1.63;;
56728;SDS011;42612;52.232;7.560;2024-03-23T11:43:11;1.50;;;1.40;;
56728;SDS011;42612;52.232;7.560;2024-03-23T11:45:42;3.53;;;1.52;;
56728;SDS011;42612;52.232;7.560;2024-03-23T11:48:10;4.10;;;1.88;;
56728;SDS011;42612;52.232;7.560;2024-03-23T11:50:48;4.07;;;1.60;;
56728;SDS011;42612;52.232;7.560;2024-03-23T11:53:17;4.72;;;1.58;;
56728;SDS011;42612;52.232;7.560;2024-03-23T11:58:15;4.97;;;1.77;;
56728;SDS011;42612;52.232;7.560;2024-03-23T12:03:21;1.30;;;0.93;;
56728;SDS011;42612;52.232;7.560;2024-03-23T12:05:50;1.30;;;0.65;;
56728;SDS011;42612;52.232;7.560;2024-03-23T12:08:34;1.05;;;0.50;;
56728;SDS011;42612;52.232;7.560;2024-03-23T12:11:07;1.63;;;0.90;;
56728;SDS011;42612;52.232;7.560;2024-03-23T12:13:37;4.25;;;0.70;;
56728;SDS011;42612;52.232;7.560;2024-03-23T12:16:10;1.90;;;0.80;;
56728;SDS011;42612;52.232;7.560;2024-03-23T12:18:44;1.73;;;0.90;;
56728;SDS011;42612;52.232;7.560;2024-03-23T12:21:14;2.70;;;0.88;;
56728;SDS011;42612;52.232;7.560;2024-03-23T12:23:40;1.60;;;0.77;;
56728;SDS011;42612;52.232;7.560;2024-03-23T12:26:09;2.30;;;1.15;;
56728;SDS011;42612;52.232;7.560;2024-03-23T12:28:35;1.50;;;0.90;;
56728;SDS011;42612;52.232;7.560;2024-03-23T12:31:01;3.33;;;1.60;;
56728;SDS011;42612;52.232;7.560;2024-03-23T12:33:26;1.92;;;1.10;;
56728;SDS011;42612;52.232;7.560;2024-03-23T12:35:52;1.00;;;0.90;;
56728;SDS011;42612;52.232;7.560;2024-03-23T12:38:18;3.22;;;1.17;;
56728;SDS011;42612;52.232;7.560;2024-03-23T12:40:48;2.85;;;1.60;;
56728;SDS011;42612;52.232;7.560;2024-03-23T12:43:15;3.13;;;1.15;;
56728;SDS011;42612;52.232;7.560;2024-03-23T12:45:41;1.25;;;1.08;;
56728;SDS011;42612;52.232;7.560;2024-03-23T12:48:12;2.97;;;1.50;;
56728;SDS011;42612;52.232;7.560;2024-03-23T12:50:38;3.53;;;1.27;;
56728;SDS011;42612;52.232;7.560;2024-03-23T12:53:03;2.88;;;1.45;;
56728;SDS011;42612;52.232;7.560;2024-03-23T12:55:29;5.63;;;1.48;;
56728;SDS011;42612;52.232;7.560;2024-03-23T12:57:55;12.45;;;7.22;;
56728;SDS011;42612;52.232;7.560;2024-03-23T13:00:21;7.65;;;4.30;;
56728;SDS011;42612;52.232;7.560;2024-03-23T13:02:47;4.03;;;1.88;;
56728;SDS011;42612;52.232;7.560;2024-03-23T13:05:13;5.13;;;1.60;;
56728;SDS011;42612;52.232;7.560;2024-03-23T13:07:39;4.78;;;1.05;;
56728;SDS011;42612;52.232;7.560;2024-03-23T13:10:05;2.63;;;1.10;;
56728;SDS011;42612;52.232;7.560;2024-03-23T13:12:31;3.33;;;1.00;;
56728;SDS011;42612;52.232;7.560;2024-03-23T13:14:58;4.50;;;1.42;;
56728;SDS011;42612;52.232;7.560;2024-03-23T13:17:25;1.93;;;1.07;;
56728;SDS011;42612;52.232;7.560;2024-03-23T13:19:54;4.97;;;1.30;;
56728;SDS011;42612;52.232;7.560;2024-03-23T13:22:23;4.97;;;1.33;;
56728;SDS011;42612;52.232;7.560;2024-03-23T13:24:49;1.73;;;1.05;;
56728;SDS011;42612;52.232;7.560;2024-03-23T13:27:15;1.33;;;0.90;;
56728;SDS011;42612;52.232;7.560;2024-03-23T13:29:41;4.65;;;1.30;;
56728;SDS011;42612;52.232;7.560;2024-03-23T13:32:07;1.27;;;0.98;;
56728;SDS011;42612;52.232;7.560;2024-03-23T13:34:33;3.00;;;1.20;;
56728;SDS011;42612;52.232;7.560;2024-03-23T13:37:00;4.03;;;1.05;;
56728;SDS011;42612;52.232;7.560;2024-03-23T13:39:26;3.00;;;1.35;;
56728;SDS011;42612;52.232;7.560;2024-03-23T13:41:54;5.88;;;1.08;;
56728;SDS011;42612;52.232;7.560;2024-03-23T13:44:21;6.03;;;1.10;;
56728;SDS011;42612;52.232;7.560;2024-03-23T13:46:47;2.30;;;0.90;;
56728;SDS011;42612;52.232;7.560;2024-03-23T13:49:18;1.63;;;0.63;;
56728;SDS011;42612;52.232;7.560;2024-03-23T13:51:51;2.80;;;0.70;;
56728;SDS011;42612;52.232;7.560;2024-03-23T13:54:18;0.50;;;0.50;;
56728;SDS011;42612;52.232;7.560;2024-03-23T13:56:44;0.55;;;0.50;;
56728;SDS011;42612;52.232;7.560;2024-03-23T13:59:10;2.10;;;0.80;;
56728;SDS011;42612;52.232;7.560;2024-03-23T14:01:35;1.85;;;0.77;;
56728;SDS011;42612;52.232;7.560;2024-03-23T14:04:01;2.30;;;0.80;;
56728;SDS011;42612;52.232;7.560;2024-03-23T14:06:27;1.35;;;0.90;;
56728;SDS011;42612;52.232;7.560;2024-03-23T14:08:53;1.13;;;0.85;;
56728;SDS011;42612;52.232;7.560;2024-03-23T14:11:18;1.00;;;0.73;;
56728;SDS011;42612;52.232;7.560;2024-03-23T14:13:44;1.58;;;0.80;;
56728;SDS011;42612;52.232;7.560;2024-03-23T14:16:10;5.65;;;1.10;;
56728;SDS011;42612;52.232;7.560;2024-03-23T14:18:35;2.33;;;0.80;;
56728;SDS011;42612;52.232;7.560;2024-03-23T14:21:01;3.28;;;1.00;;
56728;SDS011;42612;52.232;7.560;2024-03-23T14:23:30;3.10;;;1.00;;
56728;SDS011;42612;52.232;7.560;2024-03-23T14:25:59;3.00;;;1.20;;
56728;SDS011;42612;52.232;7.560;2024-03-23T14:28:25;6.35;;;2.00;;
56728;SDS011;42612;52.232;7.560;2024-03-23T14:30:51;4.55;;;1.35;;
56728;SDS011;42612;52.232;7.560;2024-03-23T14:33:20;2.35;;;0.98;;
56728;SDS011;42612;52.232;7.560;2024-03-23T14:35:53;2.40;;;1.10;;
56728;SDS011;42612;52.232;7.560;2024-03-23T14:38:22;3.75;;;0.95;;
56728;SDS011;42612;52.232;7.560;2024-03-23T14:40:49;4.23;;;1.30;;
56728;SDS011;42612;52.232;7.560;2024-03-23T14:43:16;2.60;;;1.40;;
56728;SDS011;42612;52.232;7.560;2024-03-23T14:46:28;1.40;;;1.05;;
56728;SDS011;42612;52.232;7.560;2024-03-23T14:48:32;1.67;;;1.13;;
56728;SDS011;42612;52.232;7.560;2024-03-23T14:50:58;3.63;;;1.40;;
56728;SDS011;42612;52.232;7.560;2024-03-23T14:53:25;2.78;;;1.05;;
56728;SDS011;42612;52.232;7.560;2024-03-23T14:55:55;1.92;;;1.42;;
56728;SDS011;42612;52.232;7.560;2024-03-23T14:58:21;3.43;;;1.10;;
56728;SDS011;42612;52.232;7.560;2024-03-23T15:00:48;3.83;;;1.40;;
56728;SDS011;42612;52.232;7.560;2024-03-23T15:03:14;4.30;;;1.25;;
56728;SDS011;42612;52.232;7.560;2024-03-23T15:05:40;3.72;;;1.30;;
56728;SDS011;42612;52.232;7.560;2024-03-23T15:08:06;4.00;;;1.27;;
56728;SDS011;42612;52.232;7.560;2024-03-23T15:10:32;2.13;;;1.25;;
56728;SDS011;42612;52.232;7.560;2024-03-23T15:12:58;3.65;;;1.45;;
56728;SDS011;42612;52.232;7.560;2024-03-23T15:15:24;5.22;;;1.58;;
56728;SDS011;42612;52.232;7.560;2024-03-23T15:17:50;2.83;;;1.40;;
56728;SDS011;42612;52.232;7.560;2024-03-23T15:20:16;2.33;;;1.17;;
56728;SDS011;42612;52.232;7.560;2024-03-23T15:22:42;2.50;;;1.23;;
56728;SDS011;42612;52.232;7.560;2024-03-23T15:25:08;3.38;;;0.98;;
56728;SDS011;42612;52.232;7.560;2024-03-23T15:27:34;2.78;;;1.45;;
56728;SDS011;42612;52.232;7.560;2024-03-23T15:30:00;2.42;;;0.90;;
56728;SDS011;42612;52.232;7.560;2024-03-23T15:32:26;1.92;;;0.80;;
56728;SDS011;42612;52.232;7.560;2024-03-23T15:34:51;3.05;;;0.80;;
56728;SDS011;42612;52.232;7.560;2024-03-23T15:37:17;2.78;;;1.30;;
56728;SDS011;42612;52.232;7.560;2024-03-23T15:39:43;2.15;;;0.93;;
56728;SDS011;42612;52.232;7.560;2024-03-23T15:42:09;3.60;;;1.02;;
56728;SDS011;42612;52.232;7.560;2024-03-23T15:44:35;1.30;;;0.80;;
56728;SDS011;42612;52.232;7.560;2024-03-23T15:47:01;3.22;;;0.85;;
56728;SDS011;42612;52.232;7.560;2024-03-23T15:49:27;1.67;;;1.17;;
56728;SDS011;42612;52.232;7.560;2024-03-23T15:51:53;1.88;;;0.80;;
56728;SDS011;42612;52.232;7.560;2024-03-23T15:54:19;1.33;;;0.70;;
56728;SDS011;42612;52.232;7.560;2024-03-23T15:56:46;2.30;;;1.10;;
56728;SDS011;42612;52.232;7.560;2024-03-23T15:59:12;3.78;;;1.25;;
56728;SDS011;42612;52.232;7.560;2024-03-23T16:01:38;1.55;;;1.13;;
56728;SDS011;42612;52.232;7.560;2024-03-23T16:04:03;1.88;;;1.05;;
56728;SDS011;42612;52.232;7.560;2024-03-23T16:06:29;3.00;;;0.90;;
56728;SDS011;42612;52.232;7.560;2024-03-23T16:08:55;3.08;;;1.15;;
56728;SDS011;42612;52.232;7.560;2024-03-23T16:11:21;1.88;;;1.23;;